Time;durP1;ratioP1;P1;durP2;ratioP2;P2;SDS_P1;SDS_P2;PMS_P1;PMS_P2;Temp;Humidity;BMP_temperature;BMP_pressure;BME280_temperature;BME280_humidity;BME280_pressure;Samples;Min_cycle;Max_cycle;Signal;HPM_P1;HPM_P2
2023/04/10 00:09:15;;;;;;;44.50;33.30;;;;;;;6.43;100.00;100280.39;436856;1251;139817;-69
2023/04/10 00:19:21;;;;;;;41.60;32.30;;;;;;;6.49;100.00;100271.48;436999;1251;140024;-69
2023/04/10 00:29:27;;;;;;;43.00;32.80;;;;;;;6.51;100.00;100265.70;436639;1253;140414;-69
2023/04/10 00:39:33;;;;;;;44.20;33.50;;;;;;;6.57;100.00;100262.17;436519;1253;141072;-69
2023/04/10 00:49:38;;;;;;;48.80;36.50;;;;;;;6.69;100.00;100266.27;436549;1251;141492;-69
2023/04/10 00:59:45;;;;;;;47.90;36.40;;;;;;;6.76;100.00;100270.19;436584;1250;140182;-70
2023/04/10 01:10:02;;;;;;;55.80;39.70;;;;;;;6.82;100.00;100268.20;437230;1251;140663;-69
2023/04/10 01:20:11;;;;;;;60.00;41.30;;;;;;;6.88;100.00;100271.27;436639;1253;140211;-70
2023/04/10 01:30:21;;;;;;;63.60;41.70;;;;;;;6.92;100.00;100276.02;437142;1251;139740;-70
2023/04/10 01:40:29;;;;;;;65.00;37.80;;;;;;;6.96;100.00;100276.06;436827;1253;139454;-69
2023/04/10 01:50:34;;;;;;;;;;;;;;;6.99;100.00;100265.13;437107;1250;139558;-70
2023/04/10 02:00:41;;;;;;;52.10;31.40;;;;;;;7.01;100.00;100265.05;437057;1251;126131;-70
2023/04/10 02:10:54;;;;;;;51.40;29.10;;;;;;;6.97;100.00;100272.86;437089;1251;139879;-70
2023/04/10 02:21:00;;;;;;;40.60;25.90;;;;;;;6.95;100.00;100277.66;437532;1253;141531;-69
2023/04/10 02:31:06;;;;;;;38.60;28.70;;;;;;;6.92;100.00;100277.58;436842;1251;140629;-69
2023/04/10 02:41:12;;;;;;;44.30;28.30;;;;;;;6.92;100.00;100266.60;437530;1249;139997;-70
2023/04/10 02:51:18;;;;;;;38.10;27.70;;;;;;;6.95;100.00;100261.26;436557;1250;140435;-69
2023/04/10 03:01:24;;;;;;;41.20;24.90;;;;;;;6.97;100.00;100262.08;436729;1251;141941;-70
2023/04/10 03:11:30;;;;;;;38.60;25.60;;;;;;;6.91;100.00;100268.58;436888;1250;139892;-68
2023/04/10 03:21:36;;;;;;;33.10;26.10;;;;;;;6.84;100.00;100272.11;437169;1251;139387;-69
2023/04/10 03:31:42;;;;;;;32.20;24.10;;;;;;;6.84;100.00;100279.42;436801;1251;140341;-69
2023/04/10 03:41:48;;;;;;;31.00;25.00;;;;;;;6.79;100.00;100276.32;436645;1251;139437;-69
2023/04/10 03:51:54;;;;;;;34.00;24.20;;;;;;;6.79;100.00;100279.48;436579;1251;140522;-69
2023/04/10 04:02:00;;;;;;;28.80;24.10;;;;;;;6.78;100.00;100287.33;436729;1253;140460;-70
2023/04/10 04:12:06;;;;;;;32.70;25.60;;;;;;;6.76;100.00;100299.75;438071;1251;140149;-69
2023/04/10 04:22:12;;;;;;;35.00;23.30;;;;;;;6.71;100.00;100305.31;437058;1249;139746;-69
2023/04/10 04:32:18;;;;;;;36.70;24.80;;;;;;;6.70;100.00;100311.09;436751;1251;141559;-69
2023/04/10 04:42:24;;;;;;;35.40;27.00;;;;;;;6.75;100.00;100317.19;436624;1253;139766;-69
2023/04/10 04:52:30;;;;;;;32.60;24.30;;;;;;;6.89;100.00;100323.48;436594;1254;139481;-70
2023/04/10 05:02:36;;;;;;;30.30;24.90;;;;;;;7.03;100.00;100322.58;436854;1251;140737;-70
2023/04/10 05:12:42;;;;;;;29.90;24.30;;;;;;;7.33;100.00;100336.27;436742;1253;139566;-69
2023/04/10 05:22:48;;;;;;;25.10;21.40;;;;;;;7.53;100.00;100345.95;437260;1253;139626;-70
2023/04/10 05:32:54;;;;;;;25.60;20.60;;;;;;;7.69;100.00;100357.17;437246;1250;139936;-70
2023/04/10 05:43:00;;;;;;;22.50;19.10;;;;;;;7.97;100.00;100364.27;436991;1251;139484;-70
2023/04/10 05:53:05;;;;;;;24.80;17.60;;;;;;;8.06;100.00;100365.64;436921;1251;140730;-70
2023/04/10 06:03:11;;;;;;;25.70;19.30;;;;;;;8.08;100.00;100366.62;436616;1251;140108;-69
2023/04/10 06:13:17;;;;;;;31.90;22.90;;;;;;;8.07;100.00;100370.30;437170;1250;140388;-68
2023/04/10 06:23:23;;;;;;;35.20;22.90;;;;;;;8.06;100.00;100372.95;436998;1253;139692;-70
2023/04/10 06:33:28;;;;;;;28.90;23.10;;;;;;;8.32;100.00;100369.66;437015;1251;140400;-70
2023/04/10 06:43:36;;;;;;;30.40;24.10;;;;;;;8.26;100.00;100372.48;436822;1253;140755;-70
2023/04/10 06:53:42;;;;;;;30.70;23.50;;;;;;;8.41;100.00;100373.09;436718;1253;140841;-70
2023/04/10 07:03:48;;;;;;;30.40;23.00;;;;;;;8.88;100.00;100372.69;436531;1251;140831;-69
2023/04/10 07:13:57;;;;;;;29.20;23.10;;;;;;;9.80;100.00;100372.30;436619;1253;141270;-69
2023/04/10 07:24:03;;;;;;;32.70;24.60;;;;;;;10.56;100.00;100376.10;437293;1253;140052;-70
2023/04/10 07:34:10;;;;;;;30.10;23.10;;;;;;;11.36;100.00;100373.68;436534;1250;141295;-70
2023/04/10 07:44:16;;;;;;;27.30;21.70;;;;;;;12.34;99.01;100373.42;436608;1253;141397;-69
2023/04/10 07:54:22;;;;;;;25.20;21.60;;;;;;;13.25;96.13;100373.80;437348;1251;140069;-70
2023/04/10 08:04:27;;;;;;;25.90;21.40;;;;;;;14.00;94.54;100373.53;436634;1253;140421;-69
2023/04/10 08:14:34;;;;;;;21.50;18.50;;;;;;;16.63;92.00;100364.60;436812;1254;140062;-70
2023/04/10 08:24:39;;;;;;;19.30;17.40;;;;;;;22.29;84.48;100349.10;436599;1254;140913;-67
2023/04/10 08:34:45;;;;;;;18.60;16.90;;;;;;;25.24;74.64;100342.67;436620;1253;140197;-70
2023/04/10 08:44:52;;;;;;;15.90;14.40;;;;;;;25.25;62.86;100340.02;436624;1253;141775;-70
2023/04/10 08:54:59;;;;;;;16.60;14.70;;;;;;;21.24;57.58;100341.20;436706;1254;139143;-69
2023/04/10 09:05:10;;;;;;;17.40;15.70;;;;;;;19.28;59.45;100330.04;436698;1253;141103;-69
2023/04/10 09:15:16;;;;;;;15.50;14.00;;;;;;;18.74;59.83;100326.17;437669;1254;139757;-69
2023/04/10 09:25:34;;;;;;;16.20;14.50;;;;;;;18.66;59.99;100323.14;436938;1253;139343;-69
2023/04/10 09:35:39;;;;;;;;;;;;;;;18.49;59.81;100313.77;437030;1251;139869;-70
2023/04/10 09:45:52;;;;;;;13.30;11.80;;;;;;;19.74;59.13;100296.63;436999;1253;125337;-70
2023/04/10 09:55:59;;;;;;;8.20;6.80;;;;;;;19.77;57.07;100289.07;437066;1254;140668;-69
2023/04/10 10:06:05;;;;;;;6.70;6.00;;;;;;;19.01;55.88;100277.71;436818;1253;139216;-69
2023/04/10 10:16:19;;;;;;;4.90;3.30;;;;;;;18.33;56.12;100268.54;436712;1253;140185;-71
2023/04/10 10:26:25;;;;;;;5.40;3.40;;;;;;;17.39;55.80;100267.59;437336;1253;139595;-70
2023/04/10 10:36:32;;;;;;;5.90;3.00;;;;;;;16.98;55.89;100259.88;437284;1253;138563;-70
2023/04/10 10:46:44;;;;;;;3.20;2.90;;;;;;;16.66;55.77;100250.23;436368;1253;298803;-69
2023/04/10 10:56:50;;;;;;;4.00;3.60;;;;;;;16.41;55.42;100238.19;436822;1251;138757;-69
2023/04/10 11:06:56;;;;;;;3.30;2.90;;;;;;;16.21;55.32;100232.00;436864;1253;138830;-68
2023/04/10 11:17:02;;;;;;;4.90;2.90;;;;;;;16.07;55.54;100220.35;437662;1251;139991;-69
2023/04/10 11:27:08;;;;;;;6.50;4.10;;;;;;;16.38;55.60;100212.98;436739;1251;140116;-69
2023/04/10 11:37:23;;;;;;;4.40;3.20;;;;;;;16.35;55.34;100203.84;436847;1253;139865;-70
2023/04/10 11:47:29;;;;;;;3.00;2.70;;;;;;;16.77;54.37;100194.55;436789;1251;138960;-70
2023/04/10 11:57:37;;;;;;;3.80;3.50;;;;;;;16.51;53.90;100182.45;436705;1253;139070;-71
2023/04/10 12:07:42;;;;;;;12.60;8.30;;;;;;;16.74;53.99;100170.96;437234;1253;138483;-69
2023/04/10 12:17:49;;;;;;;4.50;3.70;;;;;;;16.77;53.75;100160.64;437246;1251;138818;-69
2023/04/10 12:27:55;;;;;;;4.70;3.40;;;;;;;16.58;53.32;100144.24;437191;1253;139784;-71
2023/04/10 12:38:00;;;;;;;3.90;3.60;;;;;;;16.84;52.86;100128.77;436622;1253;140459;-70
2023/04/10 12:48:06;;;;;;;3.70;3.40;;;;;;;16.90;52.97;100116.04;436399;1254;138917;-69
2023/04/10 12:58:20;;;;;;;4.50;2.80;;;;;;;16.56;52.15;100107.02;437070;1251;139170;-72
2023/04/10 13:08:25;;;;;;;9.90;3.60;;;;;;;16.60;52.21;100088.44;437273;1254;139263;-73
2023/04/10 13:18:31;;;;;;;6.30;3.50;;;;;;;16.77;51.87;100071.67;437009;1253;139030;-70
2023/04/10 13:28:37;;;;;;;3.20;2.90;;;;;;;17.08;52.01;100059.59;436647;1251;138710;-70
2023/04/10 13:38:43;;;;;;;4.00;3.60;;;;;;;17.22;51.94;100045.53;436793;1253;140559;-70
2023/04/10 13:48:48;;;;;;;3.50;3.10;;;;;;;16.74;52.08;100033.61;436679;1251;139726;-68
2023/04/10 13:58:54;;;;;;;5.70;3.50;;;;;;;16.22;52.41;100028.25;436711;1253;138798;-70
2023/04/10 14:09:00;;;;;;;7.00;3.60;;;;;;;15.91;52.99;100022.04;439520;1249;139230;-70
2023/04/10 14:19:06;;;;;;;4.80;3.50;;;;;;;15.95;53.13;100014.33;436042;1251;139671;-70
2023/04/10 14:29:12;;;;;;;2.90;2.50;;;;;;;15.90;53.08;100008.01;436208;1254;140834;-69
2023/04/10 14:39:23;;;;;;;3.30;2.80;;;;;;;15.98;53.15;100004.50;436403;1251;138923;-69
2023/04/10 14:49:29;;;;;;;5.10;3.70;;;;;;;16.03;53.08;100001.34;436858;1253;139668;-70
2023/04/10 14:59:35;;;;;;;5.80;2.80;;;;;;;16.10;52.97;99992.13;437001;1251;139646;-69
2023/04/10 15:09:42;;;;;;;4.40;3.30;;;;;;;15.83;52.81;99974.45;436522;1250;140324;-70
2023/04/10 15:19:48;;;;;;;8.20;3.90;;;;;;;15.57;53.07;99962.73;436966;1254;138857;-70
2023/04/10 15:29:54;;;;;;;3.70;3.00;;;;;;;15.38;52.92;99957.38;436929;1251;138569;-69
2023/04/10 15:40:00;;;;;;;2.80;2.50;;;;;;;15.24;52.75;99949.58;437040;1251;139532;-69
2023/04/10 15:50:07;;;;;;;3.50;3.00;;;;;;;15.38;52.88;99943.79;436593;1253;139495;-69
2023/04/10 16:00:17;;;;;;;4.60;3.40;;;;;;;15.47;53.19;99941.77;437436;1249;139787;-70
2023/04/10 16:10:22;;;;;;;4.00;3.70;;;;;;;15.07;53.43;99936.66;436217;1251;140181;-70
2023/04/10 16:20:29;;;;;;;4.20;3.60;;;;;;;14.61;53.46;99931.05;436316;1251;139966;-69
2023/04/10 16:30:35;;;;;;;4.80;3.80;;;;;;;14.30;54.33;99915.25;436466;1249;138426;-68
2023/04/10 16:40:41;;;;;;;6.70;4.00;;;;;;;14.10;54.92;99908.94;436493;1250;138629;-69
2023/04/10 16:50:47;;;;;;;4.30;3.90;;;;;;;13.89;55.02;99899.71;436484;1251;139517;-69
2023/04/10 17:00:53;;;;;;;4.50;3.60;;;;;;;13.65;55.72;99897.75;436288;1253;138530;-69
2023/04/10 17:10:59;;;;;;;3.70;3.40;;;;;;;13.39;56.46;99899.94;436444;1249;138471;-70
2023/04/10 17:21:05;;;;;;;6.10;4.90;;;;;;;13.12;58.17;99907.97;436965;1251;140198;-70
2023/04/10 17:31:11;;;;;;;5.00;4.30;;;;;;;12.84;59.60;99915.81;436494;1253;139657;-70
2023/04/10 17:41:18;;;;;;;6.00;5.30;;;;;;;12.53;60.58;99914.92;436647;1249;138945;-70
2023/04/10 17:51:24;;;;;;;9.00;6.40;;;;;;;12.21;61.49;99919.63;437050;1253;141194;-70
2023/04/10 18:01:30;;;;;;;7.70;6.00;;;;;;;11.93;62.31;99915.64;436519;1253;139278;-68
2023/04/10 18:11:36;;;;;;;7.70;6.80;;;;;;;11.68;62.88;99914.94;436705;1251;138865;-67
2023/04/10 18:21:42;;;;;;;9.60;8.10;;;;;;;11.43;63.59;99915.80;436816;1253;140105;-66
2023/04/10 18:31:48;;;;;;;11.60;7.70;;;;;;;11.04;64.19;99914.10;436760;1251;140164;-67
2023/04/10 18:41:56;;;;;;;11.90;7.00;;;;;;;10.68;65.16;99911.20;437062;1250;139277;-65
2023/04/10 18:52:02;;;;;;;14.50;7.60;;;;;;;10.33;66.26;99901.27;437216;1251;139515;-66
2023/04/10 19:02:08;;;;;;;9.60;5.90;;;;;;;10.01;67.34;99897.84;437264;1250;140150;-66
2023/04/10 19:12:14;;;;;;;11.90;6.40;;;;;;;9.75;68.39;99901.75;436932;1253;139078;-65
2023/04/10 19:22:20;;;;;;;21.10;16.30;;;;;;;9.62;69.44;99909.45;436908;1253;139108;-66
2023/04/10 19:32:26;;;;;;;14.80;11.20;;;;;;;9.95;70.21;99910.39;436831;1250;141203;-67
2023/04/10 19:42:33;;;;;;;10.60;8.30;;;;;;;10.01;69.80;99907.09;436794;1253;139432;-70
2023/04/10 19:52:39;;;;;;;14.50;10.70;;;;;;;9.86;69.91;99900.23;436547;1251;142013;-70
2023/04/10 20:02:45;;;;;;;16.30;10.50;;;;;;;9.62;70.31;99892.30;436591;1251;141600;-69
2023/04/10 20:12:51;;;;;;;17.70;13.10;;;;;;;9.38;70.83;99876.81;436994;1251;140419;-69
2023/04/10 20:22:57;;;;;;;15.00;11.00;;;;;;;9.10;71.53;99858.55;436956;1251;141133;-70
2023/04/10 20:33:03;;;;;;;19.60;12.30;;;;;;;8.77;72.54;99846.86;436790;1251;141595;-70
2023/04/10 20:43:11;;;;;;;20.80;12.70;;;;;;;8.46;73.16;99842.49;436773;1251;140257;-69
2023/04/10 20:53:16;;;;;;;21.20;12.80;;;;;;;8.15;74.00;99842.60;436793;1250;140577;-70
2023/04/10 21:03:22;;;;;;;14.30;11.40;;;;;;;7.99;74.90;99840.30;437087;1253;140138;-70
2023/04/10 21:13:28;;;;;;;17.10;12.20;;;;;;;7.80;75.30;99829.52;437397;1250;139810;-69
2023/04/10 21:23:34;;;;;;;20.30;15.20;;;;;;;7.60;75.92;99821.77;437134;1253;139903;-70
2023/04/10 21:33:40;;;;;;;12.40;10.80;;;;;;;7.41;76.68;99814.14;437089;1253;140014;-71
2023/04/10 21:43:46;;;;;;;12.10;9.90;;;;;;;7.11;77.03;99802.77;436889;1253;140525;-69
2023/04/10 21:53:51;;;;;;;23.90;14.70;;;;;;;6.82;77.43;99785.66;437151;1253;139040;-69
2023/04/10 22:03:57;;;;;;;14.20;11.50;;;;;;;6.66;78.56;99779.73;437306;1253;140418;-70
2023/04/10 22:14:04;;;;;;;17.90;13.80;;;;;;;6.48;78.82;99769.92;436906;1253;139870;-70
2023/04/10 22:24:22;;;;;;;15.90;12.10;;;;;;;6.19;79.20;99760.39;436555;1251;139183;-70
2023/04/10 22:34:27;;;;;;;16.30;12.80;;;;;;;5.96;79.79;99745.36;436369;1251;140484;-70
2023/04/10 22:44:33;;;;;;;18.60;15.00;;;;;;;5.76;80.63;99724.83;436614;1253;139736;-69
2023/04/10 22:54:39;;;;;;;21.50;15.30;;;;;;;5.54;81.17;99727.63;436766;1253;212083;-70
2023/04/10 23:04:45;;;;;;;47.30;34.40;;;;;;;5.51;83.65;99710.36;436978;1250;138793;-70
2023/04/10 23:14:51;;;;;;;34.20;27.70;;;;;;;5.66;85.97;99694.30;436986;1253;141070;-70
2023/04/10 23:24:57;;;;;;;35.90;23.60;;;;;;;5.52;85.50;99676.82;436781;1250;140483;-71
2023/04/10 23:35:03;;;;;;;26.30;20.30;;;;;;;5.37;85.40;99662.16;437567;1250;139162;-70
2023/04/10 23:45:11;;;;;;;23.50;18.70;;;;;;;5.13;84.56;99651.15;436947;1253;140377;-70
2023/04/10 23:55:17;;;;;;;25.40;20.60;;;;;;;4.88;83.80;99643.12;437521;1251;140997;-70
